Back to Top

Language: 

My Weather Underground Personal Weather Station Historical Data with Graphs...

Delerius Weather Station Historical Data
Daily Summary for November 21, 2017 Units:  Metric    English   Both
« Previous Day
Next Day »
Daily Weekly Monthly Yearly Custom
  High: Low: Average:
Temperature: 14.4 °C 11.1 °C 12.9 °C
Dew Point: 12.3 °C 9.5 °C 11.1 °C
Humidity: 97 % 77 % 89 %
Wind Speed: 29 km/h 0 km/h 16.4 km/h
Wind Gust: 45.1 km/h - -
Wind:- - WSW
Pressure: 1009 hPa 997.2 hPa -
Precipitation: 0.76 mm    
Historical Graphs
 
 
Tabular Data for November 21, 2017
Time Temperature Dew Point Pressure Wind Wind Speed Wind Gust Humidity Rainfall Rate (Hourly) solar Conditions
00:04 11.7 °C 10.1 °C 1009 hPa West 3.2 km/h 8 km/h 90 % 0 mm 0 W/m2
00:20 11.7 °C 10.1 °C 1009 hPa West 4.8 km/h 8 km/h 90 % 0 mm 0 W/m2
00:25 11.7 °C 10.1 °C 1008.7 hPa WNW 3.2 km/h 9.7 km/h 90 % 0 mm 0 W/m2
00:28 11.6 °C 10 °C 1008.7 hPa West 4.8 km/h 8 km/h 90 % 0 mm 0 W/m2
00:29 11.6 °C 10.2 °C 1008.7 hPa West 3.2 km/h 8 km/h 91 % 0 mm 0 W/m2
00:30 11.6 °C 10.2 °C 1008.7 hPa West 3.2 km/h 8 km/h 91 % 0 mm 0 W/m2
00:35 11.6 °C 10.2 °C 1008.7 hPa West 3.2 km/h 9.7 km/h 91 % 0 mm 0 W/m2
00:40 11.6 °C 10.2 °C 1008.7 hPa Calm   3.2 km/h 91 % 0 mm 0 W/m2
00:50 11.5 °C 10.1 °C 1008.7 hPa Calm     91 % 0 mm 0 W/m2
00:55 11.4 °C 10 °C 1008.7 hPa Calm     91 % 0 mm 0 W/m2
01:00 11.4 °C 10 °C 1008.7 hPa West 1.6 km/h 8 km/h 91 % 0 mm 0 W/m2
01:05 11.4 °C 10.2 °C 1008.4 hPa Calm   3.2 km/h 92 % 0 mm 0 W/m2
01:10 11.4 °C 10.2 °C 1008.4 hPa SSW 1.6 km/h 8 km/h 92 % 0 mm 0 W/m2
01:20 11.3 °C 10.1 °C 1008.4 hPa Calm     92 % 0 mm 0 W/m2
01:30 11.3 °C 10.2 °C 1008.4 hPa Calm     93 % 0 mm 0 W/m2
01:35 11.3 °C 10.2 °C 1008.4 hPa Calm     93 % 0.25 mm 0 W/m2
01:40 11.2 °C 10.1 °C 1008.4 hPa Calm     93 % 0.25 mm 0 W/m2
01:45 11.2 °C 10.1 °C 1008.4 hPa Calm     93 % 0.25 mm 0 W/m2
01:50 11.2 °C 10.1 °C 1008.4 hPa Calm     93 % 0.25 mm 0 W/m2
01:55 11.2 °C 10.1 °C 1008 hPa Calm     93 % 0.25 mm 0 W/m2
02:00 11.2 °C 10.3 °C 1008 hPa Calm     94 % 0.25 mm 0 W/m2
02:06 11.2 °C 10.3 °C 1008 hPa Calm     94 % 0.25 mm 0 W/m2
02:11 11.2 °C 10.3 °C 1008 hPa Calm     94 % 0.25 mm 0 W/m2
02:26 11.2 °C 10.3 °C 1007.7 hPa Calm     94 % 0.25 mm 0 W/m2
02:31 11.2 °C 10.4 °C 1007.7 hPa Calm     95 % 0 mm 0 W/m2
02:36 11.2 °C 10.4 °C 1007.7 hPa Calm     95 % 0 mm 0 W/m2
02:38 11.2 °C 10.4 °C 1007.7 hPa Calm     95 % 0 mm 0 W/m2
02:43 11.2 °C 10.4 °C 1007.3 hPa Calm     95 % 0.25 mm 0 W/m2
02:53 11.1 °C 10.3 °C 1007.3 hPa Calm     95 % 0.25 mm 0 W/m2
02:58 11.2 °C 10.4 °C 1007.3 hPa Calm     95 % 0.25 mm 0 W/m2
03:13 11.2 °C 10.4 °C 1007 hPa Calm     95 % 0.25 mm 0 W/m2
03:18 11.2 °C 10.4 °C 1007 hPa SSW 1.6 km/h 3.2 km/h 95 % 0.25 mm 0 W/m2
03:23 11.2 °C 10.4 °C 1007 hPa NNW 4.8 km/h 8 km/h 95 % 0.25 mm 0 W/m2
03:25 11.2 °C 10.6 °C 1007 hPa NNW 1.6 km/h 6.4 km/h 96 % 0.25 mm 0 W/m2
03:35 11.8 °C 11.2 °C 1006.7 hPa WSW 9.7 km/h 16.1 km/h 96 % 0.25 mm 0 W/m2
03:40 12.3 °C 11.8 °C 1006.7 hPa WSW 11.3 km/h 16.1 km/h 97 % 0 mm 0 W/m2
03:45 12.5 °C 12.1 °C 1006.7 hPa West 11.3 km/h 19.3 km/h 97 % 0 mm 0 W/m2
03:50 12.7 °C 12.1 °C 1007 hPa West 12.9 km/h 17.7 km/h 96 % 0 mm 0 W/m2
03:55 12.8 °C 12.2 °C 1006.7 hPa West 11.3 km/h 17.7 km/h 96 % 0 mm 0 W/m2
04:00 12.9 °C 12.3 °C 1006.7 hPa West 17.7 km/h 25.7 km/h 96 % 0 mm 0 W/m2
04:10 13.1 °C 12.3 °C 1006.7 hPa West 14.5 km/h 24.1 km/h 95 % 0 mm 0 W/m2
04:16 13.1 °C 12.2 °C 1006.7 hPa West 17.7 km/h 24.1 km/h 94 % 0 mm 0 W/m2
04:32 13.2 °C 12.1 °C 1006.3 hPa WSW 11.3 km/h 19.3 km/h 93 % 0 mm 0 W/m2
04:37 13.2 °C 12.1 °C 1006.7 hPa West 14.5 km/h 19.3 km/h 93 % 0 mm 0 W/m2
04:42 13.2 °C 12.1 °C 1006.3 hPa West 12.9 km/h 22.5 km/h 93 % 0 mm 0 W/m2
04:47 13.2 °C 12.1 °C 1006.3 hPa WSW 17.7 km/h 33.8 km/h 93 % 0 mm 0 W/m2
04:52 13.3 °C 12 °C 1006.7 hPa West 16.1 km/h 24.1 km/h 92 % 0 mm 0 W/m2
04:57 13.3 °C 12 °C 1006.3 hPa West 12.9 km/h 19.3 km/h 92 % 0 mm 0 W/m2
05:07 13.4 °C 12.1 °C 1006.3 hPa West 19.3 km/h 32.2 km/h 92 % 0 mm 0 W/m2
05:12 13.4 °C 12.1 °C 1006.3 hPa West 14.5 km/h 20.9 km/h 92 % 0 mm 0 W/m2
05:17 13.3 °C 12 °C 1006.3 hPa West 14.5 km/h 20.9 km/h 92 % 0 mm 0 W/m2
05:22 13.3 °C 12 °C 1006.3 hPa West 14.5 km/h 22.5 km/h 92 % 0 mm 0 W/m2
05:27 13.3 °C 12 °C 1006.3 hPa WSW 14.5 km/h 20.9 km/h 92 % 0.25 mm 0 W/m2
05:32 13.3 °C 12 °C 1006 hPa West 17.7 km/h 32.2 km/h 92 % 0.25 mm 0 W/m2
05:37 13.3 °C 12 °C 1006 hPa WSW 17.7 km/h 30.6 km/h 92 % 0.25 mm 0 W/m2
05:42 13.3 °C 12 °C 1006 hPa WSW 17.7 km/h 25.7 km/h 92 % 0.25 mm 0 W/m2
05:47 13.3 °C 12 °C 1006 hPa WSW 20.9 km/h 37 km/h 92 % 0.25 mm 0 W/m2
05:52 13.3 °C 12 °C 1006 hPa WSW 20.9 km/h 33.8 km/h 92 % 0.25 mm 0 W/m2
05:57 13.3 °C 11.9 °C 1006 hPa West 19.3 km/h 32.2 km/h 91 % 0.25 mm 0 W/m2
05:58 13.3 °C 11.9 °C 1006 hPa West 17.7 km/h 25.7 km/h 91 % 0.25 mm 0 W/m2
06:08 13.2 °C 11.9 °C 1006 hPa West 19.3 km/h 32.2 km/h 92 % 0.25 mm 0 W/m2
06:23 13.3 °C 11.9 °C 1006 hPa WSW 17.7 km/h 30.6 km/h 91 % 0.25 mm 0 W/m2
06:28 13.3 °C 11.9 °C 1006 hPa West 22.5 km/h 32.2 km/h 91 % 0 mm 0 W/m2
06:33 13.3 °C 11.9 °C 1006 hPa West 17.7 km/h 35.4 km/h 91 % 0 mm 0 W/m2
06:38 13.3 °C 11.7 °C 1006 hPa West 19.3 km/h 32.2 km/h 90 % 0 mm 0 W/m2
06:44 13.3 °C 11.7 °C 1006 hPa West 17.7 km/h 29 km/h 90 % 0 mm 0 W/m2
06:49 13.3 °C 11.7 °C 1006 hPa West 16.1 km/h 33.8 km/h 90 % 0 mm 0 W/m2
06:59 13.2 °C 11.6 °C 1006 hPa West 20.9 km/h 29 km/h 90 % 0 mm 0 W/m2
07:09 13.1 °C 11.5 °C 1006 hPa WSW 20.9 km/h 35.4 km/h 90 % 0 mm 0 W/m2
07:14 13.2 °C 11.6 °C 1006 hPa West 17.7 km/h 25.7 km/h 90 % 0 mm 0 W/m2
07:19 13.2 °C 11.6 °C 1006.3 hPa WSW 17.7 km/h 30.6 km/h 90 % 0 mm 0 W/m2
07:29 13.2 °C 11.6 °C 1006 hPa WSW 20.9 km/h 32.2 km/h 90 % 0 mm 0 W/m2
07:34 13.2 °C 11.6 °C 1006 hPa West 16.1 km/h 24.1 km/h 90 % 0 mm 0 W/m2
07:39 13.1 °C 11.5 °C 1006 hPa West 17.7 km/h 25.7 km/h 90 % 0 mm 0 W/m2
07:54 13.2 °C 11.6 °C 1006 hPa West 22.5 km/h 33.8 km/h 90 % 0 mm 0 W/m2
07:59 13.2 °C 11.6 °C 1006 hPa West 22.5 km/h 33.8 km/h 90 % 0 mm 5 W/m2
08:10 13.3 °C 11.5 °C 1006.3 hPa West 17.7 km/h 33.8 km/h 89 % 0 mm 9 W/m2
08:15 13.2 °C 11.4 °C 1006.3 hPa WSW 20.9 km/h 29 km/h 89 % 0 mm 9 W/m2
08:20 13.2 °C 11.4 °C 1006.3 hPa WSW 17.7 km/h 32.2 km/h 89 % 0 mm 11 W/m2
08:26 13.3 °C 11.5 °C 1006.3 hPa WSW 19.3 km/h 32.2 km/h 89 % 0 mm 12 W/m2
08:31 13.3 °C 11.5 °C 1006.3 hPa West 19.3 km/h 25.7 km/h 89 % 0 mm 12 W/m2
08:36 13.3 °C 11.5 °C 1006.3 hPa West 16.1 km/h 24.1 km/h 89 % 0 mm 14 W/m2
08:46 13.3 °C 11.5 °C 1006.3 hPa West 19.3 km/h 33.8 km/h 89 % 0 mm 21 W/m2
08:56 13.3 °C 11.5 °C 1006.3 hPa West 22.5 km/h 33.8 km/h 89 % 0 mm 30 W/m2
09:01 13.3 °C 11.5 °C 1006.3 hPa West 22.5 km/h 35.4 km/h 89 % 0 mm 33 W/m2
09:06 13.2 °C 11.4 °C 1006.3 hPa West 17.7 km/h 29 km/h 89 % 0 mm 30 W/m2
09:11 13.2 °C 11.4 °C 1006.3 hPa West 22.5 km/h 35.4 km/h 89 % 0 mm 32 W/m2
09:16 13.3 °C 11.5 °C 1006.3 hPa WSW 19.3 km/h 29 km/h 89 % 0 mm 35 W/m2
09:21 13.2 °C 11.4 °C 1006.3 hPa West 17.7 km/h 32.2 km/h 89 % 0 mm 44 W/m2
09:51 13.3 °C 11.5 °C 1006 hPa West 16.1 km/h 30.6 km/h 89 % 0 mm 39 W/m2
09:53 13.4 °C 11.6 °C 1006 hPa WSW 17.7 km/h 29 km/h 89 % 0 mm 37 W/m2
09:58 13.4 °C 11.4 °C 1006 hPa West 17.7 km/h 22.5 km/h 88 % 0 mm 37 W/m2
10:03 13.4 °C 11.4 °C 1006 hPa West 16.1 km/h 25.7 km/h 88 % 0 mm 40 W/m2
10:13 13.5 °C 11.6 °C 1006.3 hPa WSW 16.1 km/h 29 km/h 88 % 0 mm 47 W/m2
10:18 13.5 °C 11.4 °C 1006.3 hPa SW 17.7 km/h 33.8 km/h 87 % 0 mm 49 W/m2
10:28 13.6 °C 11.5 °C 1006 hPa WSW 20.9 km/h 32.2 km/h 87 % 0 mm 63 W/m2
10:33 13.6 °C 11.5 °C 1006 hPa WSW 20.9 km/h 32.2 km/h 87 % 0 mm 67 W/m2
10:38 13.6 °C 11.5 °C 1005.6 hPa WSW 22.5 km/h 37 km/h 87 % 0 mm 70 W/m2
10:48 13.6 °C 11.5 °C 1005.6 hPa WSW 22.5 km/h 35.4 km/h 87 % 0 mm 79 W/m2
10:58 13.6 °C 11.5 °C 1005.6 hPa SW 22.5 km/h 38.6 km/h 87 % 0 mm 84 W/m2
11:03 13.6 °C 11.5 °C 1006 hPa SW 17.7 km/h 33.8 km/h 87 % 0 mm 88 W/m2
11:08 13.6 °C 11.5 °C 1005.6 hPa SW 20.9 km/h 33.8 km/h 87 % 0 mm 84 W/m2
11:13 13.6 °C 11.5 °C 1005.6 hPa SW 17.7 km/h 30.6 km/h 87 % 0 mm 91 W/m2
11:18 13.6 °C 11.5 °C 1005.6 hPa SW 20.9 km/h 33.8 km/h 87 % 0 mm 79 W/m2
11:23 13.5 °C 11.4 °C 1005.6 hPa SW 16.1 km/h 25.7 km/h 87 % 0 mm 79 W/m2
11:28 13.4 °C 11.3 °C 1006 hPa SW 20.9 km/h 32.2 km/h 87 % 0 mm 76 W/m2
11:33 13.4 °C 11.3 °C 1006 hPa WSW 17.7 km/h 24.1 km/h 87 % 0 mm 28 W/m2
11:38 13.3 °C 11.2 °C 1005.6 hPa SW 20.9 km/h 32.2 km/h 87 % 0 mm 26 W/m2
11:53 13.2 °C 11.1 °C 1005.6 hPa SW 14.5 km/h 22.5 km/h 87 % 0 mm 39 W/m2
11:58 13.2 °C 11.3 °C 1005.3 hPa SW 11.3 km/h 16.1 km/h 88 % 0 mm 35 W/m2
12:03 13.2 °C 11.3 °C 1005.3 hPa SW 14.5 km/h 24.1 km/h 88 % 0 mm 62 W/m2
12:08 13.1 °C 11.2 °C 1005 hPa SW 16.1 km/h 29 km/h 88 % 0 mm 58 W/m2
12:13 13.1 °C 11 °C 1005.3 hPa SSW 14.5 km/h 19.3 km/h 87 % 0 mm 63 W/m2
12:18 13 °C 10.9 °C 1005.3 hPa WSW 14.5 km/h 22.5 km/h 87 % 0 mm 91 W/m2
12:23 13 °C 10.9 °C 1005.3 hPa SSW 11.3 km/h 20.9 km/h 87 % 0 mm 63 W/m2
12:28 13 °C 10.7 °C 1005.3 hPa SW 11.3 km/h 19.3 km/h 86 % 0 mm 76 W/m2
12:33 13 °C 10.7 °C 1005 hPa WSW 16.1 km/h 25.7 km/h 86 % 0 mm 83 W/m2
12:38 13.1 °C 10.4 °C 1005 hPa WSW 20.9 km/h 33.8 km/h 84 % 0 mm 93 W/m2
12:43 13.1 °C 10.4 °C 1005 hPa SW 14.5 km/h 24.1 km/h 84 % 0 mm 47 W/m2
12:48 13.1 °C 10.4 °C 1005 hPa WSW 12.9 km/h 19.3 km/h 84 % 0 mm 56 W/m2
12:53 13.1 °C 10.4 °C 1005 hPa West 20.9 km/h 37 km/h 84 % 0 mm 54 W/m2
12:58 13.1 °C 10.4 °C 1004.6 hPa West 20.9 km/h 37 km/h 84 % 0 mm 77 W/m2
13:08 13 °C 10.2 °C 1004.6 hPa WSW 17.7 km/h 29 km/h 83 % 0 mm 72 W/m2
13:17 12.9 °C 10.1 °C 1004.6 hPa WSW 14.5 km/h 29 km/h 83 % 0 mm 88 W/m2
13:22 12.9 °C 9.7 °C 1004.3 hPa West 20.9 km/h 32.2 km/h 81 % 0 mm 95 W/m2
13:27 12.8 °C 9.6 °C 1004.3 hPa SW 19.3 km/h 35.4 km/h 81 % 0 mm 118 W/m2
13:37 12.9 °C 9.6 °C 1003.9 hPa SW 14.5 km/h 22.5 km/h 80 % 0 mm 149 W/m2
13:42 13 °C 9.6 °C 1003.6 hPa SSW 4.8 km/h 11.3 km/h 80 % 0 mm 200 W/m2
13:47 13.2 °C 9.6 °C 1003.3 hPa WSW 14.5 km/h 24.1 km/h 79 % 0 mm 211 W/m2
13:52 13.3 °C 9.7 °C 1003.3 hPa WSW 17.7 km/h 37 km/h 79 % 0 mm 202 W/m2
13:57 13.4 °C 9.7 °C 1003.3 hPa WSW 16.1 km/h 37 km/h 78 % 0 mm 241 W/m2
14:02 13.5 °C 9.6 °C 1002.9 hPa WSW 22.5 km/h 38.6 km/h 77 % 0 mm 178 W/m2
14:07 13.6 °C 9.8 °C 1002.9 hPa WSW 20.9 km/h 32.2 km/h 78 % 0 mm 220 W/m2
14:12 13.6 °C 9.8 °C 1003.3 hPa WSW 19.3 km/h 32.2 km/h 78 % 0 mm 171 W/m2
14:27 13.4 °C 9.7 °C 1002.9 hPa WSW 14.5 km/h 22.5 km/h 78 % 0 mm 74 W/m2
14:32 13.2 °C 9.6 °C 1002.9 hPa WSW 16.1 km/h 24.1 km/h 79 % 0 mm 67 W/m2
14:37 13.1 °C 9.7 °C 1002.9 hPa WSW 19.3 km/h 30.6 km/h 80 % 0 mm 51 W/m2
14:42 12.9 °C 9.6 °C 1002.6 hPa SW 19.3 km/h 35.4 km/h 80 % 0 mm 40 W/m2
14:47 12.8 °C 9.6 °C 1002.6 hPa WSW 17.7 km/h 29 km/h 81 % 0 mm 37 W/m2
14:52 12.7 °C 9.5 °C 1002.6 hPa SW 22.5 km/h 33.8 km/h 81 % 0 mm 35 W/m2
14:57 12.6 °C 9.6 °C 1002.6 hPa WSW 25.7 km/h 40.2 km/h 82 % 0 mm 35 W/m2
15:02 12.6 °C 9.6 °C 1002.6 hPa SW 20.9 km/h 35.4 km/h 82 % 0 mm 35 W/m2
15:07 12.7 °C 9.7 °C 1002.6 hPa WSW 22.5 km/h 37 km/h 82 % 0 mm 30 W/m2
15:12 12.7 °C 9.7 °C 1002.3 hPa SW 19.3 km/h 25.7 km/h 82 % 0 mm 25 W/m2
15:17 12.7 °C 9.9 °C 1002.3 hPa SW 22.5 km/h 33.8 km/h 83 % 0 mm 21 W/m2
15:27 12.6 °C 9.8 °C 1002.3 hPa WSW 22.5 km/h 32.2 km/h 83 % 0 mm 12 W/m2
15:32 12.6 °C 9.9 °C 1001.9 hPa SW 20.9 km/h 38.6 km/h 84 % 0 mm 9 W/m2
15:37 12.6 °C 9.9 °C 1001.9 hPa WSW 22.5 km/h 33.8 km/h 84 % 0 mm 7 W/m2
15:42 12.6 °C 9.9 °C 1001.9 hPa WSW 22.5 km/h 35.4 km/h 84 % 0 mm 5 W/m2
15:52 12.6 °C 9.9 °C 1001.9 hPa SW 19.3 km/h 32.2 km/h 84 % 0 mm 0 W/m2
16:02 12.4 °C 9.9 °C 1001.9 hPa SW 14.5 km/h 20.9 km/h 85 % 0 mm 0 W/m2
16:07 12.3 °C 9.8 °C 1001.9 hPa SW 14.5 km/h 20.9 km/h 85 % 0 mm 0 W/m2
16:12 12.3 °C 9.8 °C 1001.9 hPa SW 14.5 km/h 25.7 km/h 85 % 0 mm 0 W/m2
16:17 12.2 °C 9.9 °C 1001.9 hPa SW 14.5 km/h 22.5 km/h 86 % 0 mm 0 W/m2
16:21 12.2 °C 9.9 °C 1001.6 hPa SW 16.1 km/h 32.2 km/h 86 % 0 mm 0 W/m2
16:26 12.2 °C 10.1 °C 1001.6 hPa SW 17.7 km/h 30.6 km/h 87 % 0 mm 0 W/m2
16:31 12.3 °C 10.2 °C 1001.6 hPa SSW 17.7 km/h 29 km/h 87 % 0 mm 0 W/m2
16:36 12.3 °C 10.2 °C 1001.6 hPa SW 16.1 km/h 29 km/h 87 % 0 mm 0 W/m2
16:41 12.3 °C 10.2 °C 1001.6 hPa SW 16.1 km/h 25.7 km/h 87 % 0 mm 0 W/m2
16:46 12.4 °C 10.3 °C 1001.2 hPa SW 14.5 km/h 29 km/h 87 % 0 mm 0 W/m2
16:56 12.4 °C 10.4 °C 1000.9 hPa SSW 19.3 km/h 29 km/h 88 % 0 mm 0 W/m2
16:57 12.4 °C 10.4 °C 1000.9 hPa SSW 17.7 km/h 29 km/h 88 % 0 mm 0 W/m2
17:02 12.5 °C 10.6 °C 1000.9 hPa SSW 16.1 km/h 25.7 km/h 88 % 0 mm 0 W/m2
17:12 12.4 °C 10.4 °C 1000.6 hPa SSW 14.5 km/h 24.1 km/h 88 % 0 mm 0 W/m2
17:17 12.3 °C 10.4 °C 1000.6 hPa SSW 12.9 km/h 19.3 km/h 88 % 0 mm 0 W/m2
17:22 12.3 °C 10.6 °C 1000.6 hPa SSW 14.5 km/h 25.7 km/h 89 % 0 mm 0 W/m2
17:27 12.3 °C 10.6 °C 1000.2 hPa SSW 17.7 km/h 35.4 km/h 89 % 0 mm 0 W/m2
17:32 12.4 °C 10.6 °C 1000.2 hPa SSW 17.7 km/h 25.7 km/h 89 % 0 mm 0 W/m2
17:47 12.6 °C 10.8 °C 999.9 hPa SW 20.9 km/h 32.2 km/h 89 % 0 mm 0 W/m2
17:57 12.8 °C 11.1 °C 999.9 hPa SW 22.5 km/h 33.8 km/h 89 % 0 mm 0 W/m2
18:02 12.9 °C 11.1 °C 999.9 hPa SW 24.1 km/h 38.6 km/h 89 % 0 mm 0 W/m2
18:07 12.9 °C 11.1 °C 999.5 hPa SW 24.1 km/h 37 km/h 89 % 0 mm 0 W/m2
18:12 12.8 °C 11.2 °C 999.5 hPa SW 24.1 km/h 35.4 km/h 90 % 0 mm 0 W/m2
18:17 12.7 °C 11.1 °C 999.5 hPa SW 29 km/h 45.1 km/h 90 % 0 mm 0 W/m2
18:27 12.6 °C 11.2 °C 999.2 hPa SW 25.7 km/h 37 km/h 91 % 0.25 mm 0 W/m2
18:32 12.4 °C 11.1 °C 999.2 hPa SW 20.9 km/h 30.6 km/h 92 % 0.25 mm 0 W/m2
18:37 12.4 °C 11.1 °C 998.9 hPa SW 25.7 km/h 38.6 km/h 92 % 0.25 mm 0 W/m2
18:42 12.4 °C 11.1 °C 998.9 hPa SW 25.7 km/h 40.2 km/h 92 % 0.25 mm 0 W/m2
18:47 12.4 °C 11.3 °C 998.9 hPa SW 27.4 km/h 43.5 km/h 93 % 0.25 mm 0 W/m2
18:52 12.4 °C 11.3 °C 998.9 hPa SW 22.5 km/h 30.6 km/h 93 % 0.25 mm 0 W/m2
19:02 12.5 °C 11.4 °C 998.5 hPa SW 22.5 km/h 35.4 km/h 93 % 0.25 mm 0 W/m2
19:07 12.6 °C 11.5 °C 998.5 hPa SW 24.1 km/h 33.8 km/h 93 % 0.25 mm 0 W/m2
19:12 12.6 °C 11.5 °C 998.5 hPa WSW 25.7 km/h 38.6 km/h 93 % 0.25 mm 0 W/m2
19:17 12.6 °C 11.5 °C 998.2 hPa WSW 24.1 km/h 41.8 km/h 93 % 0.25 mm 0 W/m2
19:27 12.8 °C 11.7 °C 998.2 hPa WSW 24.1 km/h 38.6 km/h 93 % 0 mm 0 W/m2
19:32 12.9 °C 11.8 °C 998.2 hPa WSW 24.1 km/h 41.8 km/h 93 % 0 mm 0 W/m2
19:37 13.1 °C 11.8 °C 997.9 hPa WSW 22.5 km/h 35.4 km/h 92 % 0 mm 0 W/m2
19:42 13.2 °C 11.9 °C 998.2 hPa WSW 27.4 km/h 43.5 km/h 92 % 0 mm 0 W/m2
19:47 13.3 °C 11.9 °C 998.2 hPa WSW 24.1 km/h 37 km/h 91 % 0 mm 0 W/m2
19:52 13.4 °C 11.9 °C 998.2 hPa WSW 24.1 km/h 41.8 km/h 91 % 0 mm 0 W/m2
19:57 13.6 °C 12 °C 998.2 hPa WSW 29 km/h 43.5 km/h 90 % 0 mm 0 W/m2
20:02 13.7 °C 12.1 °C 998.2 hPa WSW 27.4 km/h 45.1 km/h 90 % 0 mm 0 W/m2
20:12 13.9 °C 12.1 °C 998.2 hPa WSW 27.4 km/h 38.6 km/h 89 % 0 mm 0 W/m2
20:17 14 °C 12.2 °C 998.2 hPa WSW 27.4 km/h 41.8 km/h 89 % 0 mm 0 W/m2
20:22 14 °C 12.1 °C 998.2 hPa WSW 25.7 km/h 38.6 km/h 88 % 0 mm 0 W/m2
20:27 13.9 °C 11.9 °C 998.2 hPa WSW 20.9 km/h 40.2 km/h 88 % 0 mm 0 W/m2
20:42 14.1 °C 12.2 °C 998.2 hPa WSW 27.4 km/h 40.2 km/h 88 % 0 mm 0 W/m2
20:47 14.1 °C 11.9 °C 998.5 hPa WSW 22.5 km/h 37 km/h 87 % 0 mm 0 W/m2
20:52 14.2 °C 11.9 °C 998.2 hPa WSW 27.4 km/h 40.2 km/h 86 % 0 mm 0 W/m2
20:57 14.3 °C 12 °C 998.2 hPa WSW 27.4 km/h 38.6 km/h 86 % 0 mm 0 W/m2
21:08 14.4 °C 11.9 °C 998.2 hPa WSW 25.7 km/h 38.6 km/h 85 % 0 mm 0 W/m2
21:13 14.4 °C 11.9 °C 998.2 hPa WSW 24.1 km/h 40.2 km/h 85 % 0 mm 0 W/m2
21:23 14.4 °C 11.9 °C 998.2 hPa WSW 24.1 km/h 35.4 km/h 85 % 0 mm 0 W/m2
21:28 14.4 °C 11.9 °C 998.2 hPa SW 19.3 km/h 33.8 km/h 85 % 0 mm 0 W/m2
21:33 14.4 °C 11.9 °C 998.2 hPa SW 22.5 km/h 43.5 km/h 85 % 0 mm 0 W/m2
21:38 14.4 °C 11.9 °C 998.2 hPa WSW 16.1 km/h 33.8 km/h 85 % 0 mm 0 W/m2
21:48 14.3 °C 12 °C 998.2 hPa WSW 17.7 km/h 25.7 km/h 86 % 0 mm 0 W/m2
21:53 14.2 °C 12.1 °C 998.2 hPa SW 20.9 km/h 33.8 km/h 87 % 0 mm 0 W/m2
21:58 14.1 °C 11.9 °C 998.2 hPa SW 17.7 km/h 24.1 km/h 87 % 0 mm 0 W/m2
22:03 14.1 °C 11.9 °C 998.2 hPa SW 16.1 km/h 24.1 km/h 87 % 0 mm 0 W/m2
22:08 14 °C 12.1 °C 998.2 hPa WSW 19.3 km/h 30.6 km/h 88 % 0 mm 0 W/m2
22:13 14.1 °C 12.2 °C 998.2 hPa SW 17.7 km/h 25.7 km/h 88 % 0 mm 0 W/m2
22:18 14.1 °C 12.2 °C 998.5 hPa SW 20.9 km/h 29 km/h 88 % 0 mm 0 W/m2
22:23 14.1 °C 12.2 °C 998.5 hPa WSW 17.7 km/h 25.7 km/h 88 % 0 mm 0 W/m2
22:28 14 °C 12.1 °C 998.2 hPa SW 16.1 km/h 24.1 km/h 88 % 0 mm 0 W/m2
22:33 14 °C 12.1 °C 998.2 hPa SW 14.5 km/h 24.1 km/h 88 % 0 mm 0 W/m2
22:38 14 °C 12.1 °C 998.2 hPa SW 16.1 km/h 29 km/h 88 % 0 mm 0 W/m2
22:43 14 °C 12.1 °C 997.9 hPa SW 16.1 km/h 22.5 km/h 88 % 0 mm 0 W/m2
22:48 13.9 °C 11.9 °C 997.9 hPa SW 14.5 km/h 24.1 km/h 88 % 0 mm 0 W/m2
22:58 14 °C 12.1 °C 997.9 hPa WSW 20.9 km/h 41.8 km/h 88 % 0 mm 0 W/m2
23:03 14 °C 12.1 °C 997.9 hPa WSW 19.3 km/h 25.7 km/h 88 % 0 mm 0 W/m2
23:08 14.1 °C 12.2 °C 997.5 hPa WSW 19.3 km/h 30.6 km/h 88 % 0 mm 0 W/m2
23:13 14.1 °C 11.9 °C 997.5 hPa WSW 19.3 km/h 25.7 km/h 87 % 0 mm 0 W/m2
23:18 14.2 °C 12.1 °C 997.5 hPa WSW 22.5 km/h 35.4 km/h 87 % 0 mm 0 W/m2
23:23 14.2 °C 11.9 °C 997.5 hPa WSW 14.5 km/h 29 km/h 86 % 0 mm 0 W/m2
23:33 14.1 °C 11.9 °C 997.2 hPa WSW 19.3 km/h 32.2 km/h 87 % 0 mm 0 W/m2
23:38 14.1 °C 11.9 °C 997.2 hPa WSW 19.3 km/h 35.4 km/h 87 % 0 mm 0 W/m2
23:43 14.1 °C 11.9 °C 997.2 hPa WSW 16.1 km/h 29 km/h 87 % 0 mm 0 W/m2
23:48 14.1 °C 11.9 °C 997.2 hPa WSW 19.3 km/h 33.8 km/h 87 % 0 mm 0 W/m2
23:53 14.1 °C 11.9 °C 997.2 hPa WSW 25.7 km/h 35.4 km/h 87 % 0 mm 0 W/m2
Delerius-Weather
Compliments of Weather Underground - 2 mb

Data updates at regular intervals.